Time;durP1;ratioP1;P1;durP2;ratioP2;P2;SDS_P1;SDS_P2;PMS_P1;PMS_P2;Temp;Humidity;BMP_temperature;BMP_pressure;BME280_temperature;BME280_humidity;BME280_pressure;Samples;Min_cycle;Max_cycle;Signal;HPM_P1;HPM_P2
2023/09/07 00:01:25;;;;;;;5.63;4.65;;;20.70;99.90;;;;;;5003664;28;20064;-77
2023/09/07 00:03:51;;;;;;;6.32;4.47;;;20.70;99.90;;;;;;5003946;28;20022;-80
2023/09/07 00:06:16;;;;;;;7.88;4.80;;;20.70;99.90;;;;;;5003433;28;20029;-77
2023/09/07 00:08:42;;;;;;;5.65;4.70;;;20.60;99.90;;;;;;5002778;28;20023;-77
2023/09/07 00:11:09;;;;;;;5.95;4.90;;;20.60;99.90;;;;;;5002913;28;20023;-75
2023/09/07 00:13:35;;;;;;;7.05;4.65;;;20.60;99.90;;;;;;5003547;28;20024;-77
2023/09/07 00:16:03;;;;;;;6.80;5.13;;;20.50;99.90;;;;;;5004087;28;20030;-76
2023/09/07 00:18:29;;;;;;;7.85;5.05;;;20.50;99.90;;;;;;5003454;28;20014;-78
2023/09/07 00:20:54;;;;;;;9.25;5.07;;;20.50;99.90;;;;;;5003050;28;20165;-76
2023/09/07 00:23:20;;;;;;;6.60;4.85;;;20.40;99.90;;;;;;5001742;28;20549;-76
2023/09/07 00:25:46;;;;;;;10.02;5.18;;;20.40;99.90;;;;;;5003295;28;20057;-76
2023/09/07 00:28:12;;;;;;;8.02;5.07;;;20.40;99.90;;;;;;5001786;28;20427;-77
2023/09/07 00:30:38;;;;;;;8.90;5.15;;;20.30;99.90;;;;;;5001545;28;20483;-79
2023/09/07 00:33:04;;;;;;;8.57;5.22;;;20.30;99.90;;;;;;5003085;28;20439;-77
2023/09/07 00:35:29;;;;;;;9.15;4.90;;;20.30;99.90;;;;;;5001503;28;20197;-75
2023/09/07 00:37:55;;;;;;;9.95;5.15;;;20.20;99.90;;;;;;5001301;28;20466;-76
2023/09/07 00:40:22;;;;;;;7.25;5.38;;;20.20;99.90;;;;;;5002643;28;20026;-76
2023/09/07 00:42:47;;;;;;;6.75;5.10;;;20.10;99.90;;;;;;5002862;28;20034;-76
2023/09/07 00:45:13;;;;;;;6.55;4.90;;;20.10;99.90;;;;;;5002910;28;20052;-76
2023/09/07 00:47:39;;;;;;;6.32;5.53;;;20.00;99.90;;;;;;5001268;28;20030;-77
2023/09/07 00:50:06;;;;;;;7.55;4.78;;;20.00;99.90;;;;;;5002872;28;20442;-78
2023/09/07 00:52:33;;;;;;;8.43;5.07;;;20.00;99.90;;;;;;5001283;28;20471;-74
2023/09/07 00:55:01;;;;;;;12.10;5.65;;;20.00;99.90;;;;;;5002092;28;20022;-75
2023/09/07 00:57:27;;;;;;;8.07;5.35;;;19.90;99.90;;;;;;5000601;28;20085;-78
2023/09/07 00:59:53;;;;;;;7.90;5.28;;;19.90;99.90;;;;;;5001413;28;20026;-76
2023/09/07 01:02:19;;;;;;;8.23;5.20;;;19.90;99.90;;;;;;5000629;28;20035;-77
2023/09/07 01:04:45;;;;;;;8.52;5.47;;;19.80;99.90;;;;;;5001365;28;20041;-76
2023/09/07 01:07:25;;;;;;;6.93;5.50;;;19.80;99.90;;;;;;5001116;28;20022;-76
2023/09/07 01:09:55;;;;;;;9.52;5.57;;;19.80;99.90;;;;;;5002247;28;20034;-76
2023/09/07 01:12:21;;;;;;;9.55;5.25;;;19.80;99.90;;;;;;5002527;28;20022;-76
2023/09/07 01:14:47;;;;;;;8.90;5.35;;;19.70;99.90;;;;;;5000953;28;20034;-78
2023/09/07 01:17:13;;;;;;;12.05;5.60;;;19.70;99.90;;;;;;5000985;28;20026;-76
2023/09/07 01:19:39;;;;;;;9.15;5.43;;;19.70;99.90;;;;;;5002634;28;20029;-78
2023/09/07 01:22:08;;;;;;;10.00;6.18;;;19.70;99.90;;;;;;5000529;28;20042;-78
2023/09/07 01:24:35;;;;;;;7.60;5.40;;;19.70;99.90;;;;;;5002233;28;20037;-75
2023/09/07 01:27:02;;;;;;;7.63;5.80;;;19.60;99.90;;;;;;5002626;28;20483;-77
2023/09/07 01:29:30;;;;;;;9.57;5.82;;;19.60;99.90;;;;;;5001797;28;20182;-79
2023/09/07 01:31:57;;;;;;;6.60;5.65;;;19.60;99.90;;;;;;5001397;28;20079;-78
2023/09/07 01:34:23;;;;;;;8.75;5.82;;;19.50;99.90;;;;;;5000917;28;20077;-79
2023/09/07 01:36:49;;;;;;;10.70;6.20;;;19.50;99.90;;;;;;5001916;28;20041;-77
2023/09/07 01:39:16;;;;;;;7.82;5.53;;;19.50;99.90;;;;;;4999704;28;20022;-80
2023/09/07 01:41:45;;;;;;;9.27;6.00;;;19.50;99.90;;;;;;5001348;28;20192;-78
2023/09/07 01:44:10;;;;;;;9.48;6.45;;;19.40;99.90;;;;;;5001806;28;20030;-78
2023/09/07 01:46:36;;;;;;;9.75;6.35;;;19.40;99.90;;;;;;5000972;28;20030;-76
2023/09/07 01:49:02;;;;;;;8.45;6.00;;;19.40;99.90;;;;;;5000932;28;20423;-79
2023/09/07 01:51:28;;;;;;;7.75;5.95;;;19.30;99.90;;;;;;5001262;28;20030;-76
2023/09/07 01:53:54;;;;;;;10.07;5.80;;;19.40;99.90;;;;;;5000522;28;20026;-76
2023/09/07 01:56:20;;;;;;;10.90;5.85;;;19.30;99.90;;;;;;5000570;28;20049;-78
2023/09/07 01:58:49;;;;;;;7.78;5.90;;;19.30;99.90;;;;;;5000361;28;20456;-78
2023/09/07 02:01:25;;;;;;;8.90;6.18;;;19.30;99.90;;;;;;5002045;28;20053;-77
2023/09/07 02:03:50;;;;;;;6.97;5.60;;;19.30;99.90;;;;;;5001133;28;20026;-77
2023/09/07 02:06:16;;;;;;;8.45;6.00;;;19.30;99.90;;;;;;5002876;28;20122;-77
2023/09/07 02:08:42;;;;;;;9.52;6.03;;;19.30;99.90;;;;;;5004339;28;20037;-77
2023/09/07 02:11:08;;;;;;;9.75;6.18;;;19.20;99.90;;;;;;5005142;28;20464;-77
2023/09/07 02:13:33;;;;;;;10.57;6.10;;;19.20;99.90;;;;;;5004302;28;20019;-77
2023/09/07 02:16:04;;;;;;;10.57;7.50;;;19.20;99.90;;;;;;5004662;28;20077;-76
2023/09/07 02:18:29;;;;;;;8.50;6.25;;;19.10;99.90;;;;;;5006009;28;20019;-76
2023/09/07 02:21:02;;;;;;;10.77;6.55;;;19.10;99.90;;;;;;5005077;28;20722;-77
2023/09/07 02:23:28;;;;;;;9.48;6.28;;;19.10;99.90;;;;;;5004337;28;20042;-79
2023/09/07 02:25:53;;;;;;;8.20;6.50;;;19.00;99.90;;;;;;5005379;28;20033;-77
2023/09/07 02:28:19;;;;;;;8.75;6.55;;;19.00;99.90;;;;;;5003968;28;20404;-75
2023/09/07 02:30:44;;;;;;;17.33;6.70;;;18.90;99.90;;;;;;5005386;28;20089;-77
2023/09/07 02:33:10;;;;;;;9.43;6.82;;;18.90;99.90;;;;;;5004015;28;20030;-76
2023/09/07 02:35:38;;;;;;;9.57;6.88;;;18.90;99.90;;;;;;5003629;28;20110;-76
2023/09/07 02:38:04;;;;;;;8.00;6.30;;;18.90;99.90;;;;;;5004096;28;20054;-77
2023/09/07 02:40:30;;;;;;;10.57;6.65;;;18.90;99.90;;;;;;5003894;28;20026;-77
2023/09/07 02:42:55;;;;;;;13.65;6.93;;;18.90;99.90;;;;;;5003161;28;20034;-78
2023/09/07 02:45:21;;;;;;;9.75;6.60;;;18.90;99.90;;;;;;5003544;28;20117;-79
2023/09/07 02:47:49;;;;;;;10.35;7.15;;;18.90;99.90;;;;;;5003987;28;20014;-77
2023/09/07 02:50:15;;;;;;;11.10;6.80;;;18.90;99.90;;;;;;5004606;28;20027;-76
2023/09/07 02:52:41;;;;;;;9.05;7.07;;;18.90;99.90;;;;;;5004002;28;20019;-76
2023/09/07 02:55:07;;;;;;;9.80;6.97;;;18.90;99.90;;;;;;5002977;28;20037;-76
2023/09/07 02:57:32;;;;;;;9.25;6.75;;;18.90;99.90;;;;;;5003275;28;20100;-77
2023/09/07 02:59:58;;;;;;;9.10;7.22;;;18.90;99.90;;;;;;5003878;28;20404;-77
2023/09/07 03:02:23;;;;;;;11.65;7.30;;;18.90;99.90;;;;;;5004597;28;20102;-75
2023/09/07 03:04:54;;;;;;;9.85;6.88;;;18.90;99.90;;;;;;5004578;28;20034;-76
2023/09/07 03:07:20;;;;;;;11.57;6.70;;;18.90;99.90;;;;;;5003447;28;20113;-77
2023/09/07 03:09:45;;;;;;;9.13;6.65;;;18.90;99.90;;;;;;5004397;28;20050;-77
2023/09/07 03:12:11;;;;;;;12.48;7.47;;;18.80;99.90;;;;;;5002640;28;20027;-77
2023/09/07 03:14:37;;;;;;;8.90;6.78;;;18.80;99.90;;;;;;5004772;28;20101;-79
2023/09/07 03:17:03;;;;;;;10.32;7.22;;;18.80;99.90;;;;;;5002951;28;20033;-79
2023/09/07 03:19:29;;;;;;;9.38;7.05;;;18.80;99.90;;;;;;5003552;28;20022;-79
2023/09/07 03:21:55;;;;;;;13.98;7.10;;;18.70;99.90;;;;;;5004313;28;20052;-77
2023/09/07 03:24:20;;;;;;;10.32;6.60;;;18.70;99.90;;;;;;5004177;28;20113;-79
2023/09/07 03:26:46;;;;;;;11.38;7.53;;;18.70;99.90;;;;;;5002505;28;20038;-78
2023/09/07 03:29:12;;;;;;;11.55;7.10;;;18.70;99.90;;;;;;5002821;28;20460;-77
2023/09/07 03:31:37;;;;;;;13.93;8.10;;;18.60;99.90;;;;;;5002757;28;20039;-78
2023/09/07 03:34:03;;;;;;;12.05;7.40;;;18.60;99.90;;;;;;5002838;28;20476;-77
2023/09/07 03:36:28;;;;;;;11.40;7.82;;;18.50;99.90;;;;;;5002976;28;20028;-77
2023/09/07 03:38:54;;;;;;;9.43;7.65;;;18.50;99.90;;;;;;5004052;28;20089;-76
2023/09/07 03:41:19;;;;;;;12.73;7.57;;;18.50;99.90;;;;;;5002782;28;20030;-77
2023/09/07 03:43:45;;;;;;;10.35;7.85;;;18.40;99.90;;;;;;5002558;28;20034;-76
2023/09/07 03:46:11;;;;;;;12.68;8.25;;;18.40;99.90;;;;;;5003964;28;20033;-77
2023/09/07 03:48:36;;;;;;;9.50;7.30;;;18.40;99.90;;;;;;5002869;28;20719;-75
2023/09/07 03:51:06;;;;;;;9.93;7.97;;;18.30;99.90;;;;;;5003256;28;20031;-77
2023/09/07 03:53:31;;;;;;;11.77;7.63;;;18.30;99.90;;;;;;5002558;28;20085;-77
2023/09/07 03:55:57;;;;;;;10.60;7.47;;;18.30;99.90;;;;;;5004151;28;20023;-78
2023/09/07 03:58:23;;;;;;;10.93;8.25;;;18.20;99.90;;;;;;5001712;28;20035;-77
2023/09/07 04:00:49;;;;;;;11.80;8.48;;;18.20;99.90;;;;;;5002353;28;20018;-77
2023/09/07 04:03:15;;;;;;;12.23;8.30;;;18.20;99.90;;;;;;5003379;28;20436;-77
2023/09/07 04:05:40;;;;;;;10.38;8.38;;;18.10;99.90;;;;;;5002223;28;20037;-76
2023/09/07 04:08:07;;;;;;;12.35;9.13;;;18.10;99.90;;;;;;5002100;28;20057;-76
2023/09/07 04:10:33;;;;;;;12.10;8.63;;;18.10;99.90;;;;;;5002180;28;20030;-77
2023/09/07 04:12:58;;;;;;;10.68;8.13;;;18.00;99.90;;;;;;5002452;28;20094;-76
2023/09/07 04:15:25;;;;;;;11.77;9.23;;;18.00;99.90;;;;;;5003123;28;20066;-76
2023/09/07 04:17:51;;;;;;;13.07;8.90;;;18.00;99.90;;;;;;5001896;28;20049;-76
2023/09/07 04:20:17;;;;;;;15.25;8.80;;;17.90;99.90;;;;;;5002119;28;20029;-75
2023/09/07 04:22:42;;;;;;;12.77;9.00;;;17.90;99.90;;;;;;5001877;28;20034;-76
2023/09/07 04:25:08;;;;;;;14.02;8.80;;;17.90;99.90;;;;;;5003331;28;20061;-76
2023/09/07 04:27:34;;;;;;;12.52;9.30;;;17.80;99.90;;;;;;5002490;28;20027;-77
2023/09/07 04:29:59;;;;;;;12.77;8.68;;;17.80;99.90;;;;;;5003156;28;20077;-77
2023/09/07 04:32:25;;;;;;;10.85;8.05;;;17.80;99.90;;;;;;5002781;28;20034;-75
2023/09/07 04:34:55;;;;;;;13.23;9.02;;;17.80;99.90;;;;;;5001434;28;20042;-75
2023/09/07 04:37:22;;;;;;;13.57;9.05;;;17.70;99.90;;;;;;5002905;28;20467;-76
2023/09/07 04:39:52;;;;;;;10.75;8.40;;;17.70;99.90;;;;;;5001377;28;20034;-75
2023/09/07 04:42:18;;;;;;;15.52;9.05;;;17.60;99.90;;;;;;5001693;28;20038;-76
2023/09/07 04:44:43;;;;;;;12.07;8.85;;;17.60;99.90;;;;;;5001667;28;20041;-76
2023/09/07 04:47:09;;;;;;;13.23;8.77;;;17.60;99.90;;;;;;5001251;28;20045;-76
2023/09/07 04:49:35;;;;;;;14.63;8.90;;;17.60;99.90;;;;;;5001464;28;20077;-77
2023/09/07 04:52:00;;;;;;;13.13;8.85;;;17.60;99.90;;;;;;5002354;28;20034;-76
2023/09/07 04:54:26;;;;;;;12.32;9.70;;;17.60;99.90;;;;;;5002638;28;20037;-77
2023/09/07 04:56:52;;;;;;;12.20;9.30;;;17.60;99.90;;;;;;5002188;28;20026;-78
2023/09/07 04:59:17;;;;;;;12.48;9.15;;;17.60;99.90;;;;;;5002351;28;20049;-78
2023/09/07 05:01:43;;;;;;;13.93;9.00;;;17.60;99.90;;;;;;4999813;28;20038;-74
2023/09/07 05:04:08;;;;;;;13.77;9.48;;;17.60;99.90;;;;;;5002609;28;20121;-78
2023/09/07 05:06:37;;;;;;;14.90;9.45;;;17.50;99.90;;;;;;5002776;28;20101;-78
2023/09/07 05:09:03;;;;;;;13.45;9.18;;;17.50;99.90;;;;;;5002294;28;20042;-77
2023/09/07 05:11:29;;;;;;;13.70;8.85;;;17.50;99.90;;;;;;5003792;28;20033;-77
2023/09/07 05:13:54;;;;;;;13.13;8.65;;;17.50;99.90;;;;;;5000193;28;20034;-76
2023/09/07 05:16:20;;;;;;;14.15;9.13;;;17.50;99.90;;;;;;5000724;28;20086;-74
2023/09/07 05:18:46;;;;;;;14.30;9.32;;;17.50;99.90;;;;;;5000513;28;20030;-74
2023/09/07 05:21:14;;;;;;;11.70;8.68;;;17.50;99.90;;;;;;4998397;28;20038;-76
2023/09/07 05:23:41;;;;;;;13.40;9.52;;;17.50;99.90;;;;;;4999007;28;20469;-76
2023/09/07 05:26:06;;;;;;;16.98;9.52;;;17.50;99.90;;;;;;5001224;28;20023;-75
2023/09/07 05:28:32;;;;;;;18.02;9.57;;;17.50;99.90;;;;;;4999025;28;20034;-73
2023/09/07 05:30:57;;;;;;;15.35;9.90;;;17.50;99.90;;;;;;5007983;28;20061;-75
2023/09/07 05:33:23;;;;;;;15.63;8.77;;;17.50;99.90;;;;;;5000635;28;20030;-75
2023/09/07 05:35:49;;;;;;;14.13;9.85;;;17.50;99.90;;;;;;5000810;28;20046;-74
2023/09/07 05:38:15;;;;;;;15.18;9.50;;;17.50;99.90;;;;;;4999131;28;20054;-73
2023/09/07 05:40:43;;;;;;;17.13;9.88;;;17.50;99.90;;;;;;5004399;28;20065;-72
2023/09/07 05:43:10;;;;;;;18.30;9.15;;;17.50;99.90;;;;;;5005673;28;20041;-76
2023/09/07 05:45:39;;;;;;;13.32;9.30;;;17.50;99.90;;;;;;5006007;28;20113;-73
2023/09/07 05:48:06;;;;;;;12.30;9.60;;;17.60;99.90;;;;;;5004264;28;20041;-75
2023/09/07 05:50:34;;;;;;;12.43;9.23;;;17.60;99.90;;;;;;5005989;28;20054;-73
2023/09/07 05:53:00;;;;;;;13.73;9.60;;;17.60;99.90;;;;;;5006476;28;20088;-74
2023/09/07 05:55:25;;;;;;;14.75;9.60;;;17.60;99.90;;;;;;5004472;28;20452;-74
2023/09/07 05:57:54;;;;;;;13.30;9.65;;;17.60;99.90;;;;;;5004952;28;20034;-73
2023/09/07 06:00:20;;;;;;;14.85;9.55;;;17.70;99.90;;;;;;5005803;28;20479;-74
2023/09/07 06:02:46;;;;;;;14.30;8.98;;;17.70;99.90;;;;;;5005801;28;20034;-74
2023/09/07 06:05:11;;;;;;;16.38;9.77;;;17.70;99.90;;;;;;5005848;28;20026;-73
2023/09/07 06:07:37;;;;;;;13.20;10.13;;;17.70;99.90;;;;;;5004751;28;20098;-74
2023/09/07 06:10:05;;;;;;;16.98;9.57;;;17.80;99.90;;;;;;5005514;28;20042;-75
2023/09/07 06:12:31;;;;;;;13.20;9.35;;;17.80;99.90;;;;;;5000889;28;20038;-74
2023/09/07 06:14:57;;;;;;;15.80;10.45;;;17.80;99.90;;;;;;4999308;28;20109;-77
2023/09/07 06:17:22;;;;;;;13.40;10.02;;;17.80;99.90;;;;;;5001662;28;20124;-75
2023/09/07 06:19:48;;;;;;;14.85;10.18;;;17.90;99.90;;;;;;5003771;28;20037;-76
2023/09/07 06:22:14;;;;;;;14.43;9.68;;;17.90;99.90;;;;;;5005662;28;20030;-75
2023/09/07 06:24:39;;;;;;;17.98;10.57;;;17.90;99.90;;;;;;5003433;28;20037;-73
2023/09/07 06:27:05;;;;;;;14.90;9.38;;;17.90;99.90;;;;;;5002651;28;20039;-75
2023/09/07 06:29:31;;;;;;;13.75;9.45;;;18.00;99.90;;;;;;5003591;28;20026;-76
2023/09/07 06:31:56;;;;;;;13.35;8.88;;;18.00;99.90;;;;;;5002792;28;20033;-75
2023/09/07 06:34:22;;;;;;;11.15;9.05;;;18.00;99.90;;;;;;5003262;28;20081;-74
2023/09/07 06:36:47;;;;;;;13.05;9.20;;;18.10;99.90;;;;;;5004748;28;20033;-76
2023/09/07 06:39:13;;;;;;;14.73;9.18;;;18.10;99.90;;;;;;5003189;28;20026;-75
2023/09/07 06:41:38;;;;;;;16.40;9.18;;;18.20;99.90;;;;;;5005329;28;20499;-76
2023/09/07 06:44:04;;;;;;;14.43;10.13;;;18.20;99.90;;;;;;5005297;28;20046;-74
2023/09/07 06:46:29;;;;;;;12.25;9.15;;;18.30;99.90;;;;;;5005372;28;20022;-72
2023/09/07 06:48:55;;;;;;;12.30;9.13;;;18.40;99.90;;;;;;5004452;28;20034;-72
2023/09/07 06:51:21;;;;;;;12.65;8.98;;;18.40;99.90;;;;;;5002433;28;20026;-73
2023/09/07 06:53:47;;;;;;;14.35;8.90;;;18.50;99.90;;;;;;5003523;28;20081;-73
2023/09/07 06:56:12;;;;;;;12.38;8.55;;;18.60;99.90;;;;;;5004932;28;20023;-74
2023/09/07 06:58:38;;;;;;;16.50;9.95;;;18.60;99.90;;;;;;5004960;28;20687;-73
2023/09/07 07:01:04;;;;;;;11.43;8.45;;;18.70;99.90;;;;;;5004152;28;20018;-74
2023/09/07 07:03:30;;;;;;;11.32;8.80;;;18.80;99.90;;;;;;5004253;28;20034;-73
2023/09/07 07:05:56;;;;;;;13.43;8.82;;;18.80;99.90;;;;;;5002487;28;20108;-74
2023/09/07 07:08:22;;;;;;;17.58;9.40;;;18.90;99.90;;;;;;5003862;28;20041;-73
2023/09/07 07:10:49;;;;;;;13.02;9.25;;;19.00;99.90;;;;;;5002920;28;20045;-73
2023/09/07 07:13:14;;;;;;;14.30;9.35;;;19.10;99.90;;;;;;5002709;28;20146;-74
2023/09/07 07:15:41;;;;;;;17.27;9.73;;;19.20;99.90;;;;;;5003157;28;20459;-75
2023/09/07 07:18:08;;;;;;;14.15;9.40;;;19.20;99.90;;;;;;5002978;28;20022;-73
2023/09/07 07:20:38;;;;;;;11.57;9.10;;;19.30;99.90;;;;;;5002950;28;20025;-74
2023/09/07 07:23:04;;;;;;;13.07;9.35;;;19.40;99.90;;;;;;5001793;28;20046;-72
2023/09/07 07:25:33;;;;;;;11.40;8.73;;;19.50;99.90;;;;;;5001559;28;20545;-74
2023/09/07 07:28:05;;;;;;;15.18;9.15;;;19.60;99.90;;;;;;5002373;28;20093;-74
2023/09/07 07:30:38;;;;;;;17.00;9.35;;;19.70;99.90;;;;;;5002577;28;20062;-73
2023/09/07 07:33:04;;;;;;;11.25;8.65;;;19.80;99.90;;;;;;5003345;28;20542;-75
2023/09/07 07:35:36;;;;;;;10.63;8.57;;;19.80;99.90;;;;;;5002185;28;20142;-73
2023/09/07 07:38:03;;;;;;;10.88;8.52;;;20.00;99.90;;;;;;5002597;28;20026;-73
2023/09/07 07:40:32;;;;;;;14.93;9.18;;;20.10;99.90;;;;;;5003485;28;20030;-73
2023/09/07 07:42:58;;;;;;;11.65;8.65;;;20.20;99.90;;;;;;5003211;28;20046;-73
2023/09/07 07:45:23;;;;;;;12.63;8.48;;;20.30;99.90;;;;;;5001872;28;20068;-73
2023/09/07 07:47:50;;;;;;;13.02;8.63;;;20.40;99.90;;;;;;5001961;28;20106;-74
2023/09/07 07:50:16;;;;;;;10.55;8.15;;;20.40;99.90;;;;;;5002295;28;20031;-73
2023/09/07 07:52:42;;;;;;;17.73;9.07;;;20.50;99.90;;;;;;4999808;28;20121;-73
2023/09/07 07:55:08;;;;;;;12.77;8.27;;;20.60;99.90;;;;;;4998872;28;20041;-73
2023/09/07 07:57:34;;;;;;;11.85;8.00;;;20.70;99.90;;;;;;4999603;28;20116;-74
2023/09/07 08:00:00;;;;;;;11.90;8.82;;;20.80;99.90;;;;;;5000598;28;20022;-72
2023/09/07 08:02:25;;;;;;;11.45;7.85;;;20.90;99.90;;;;;;5000503;28;20069;-74
2023/09/07 08:04:51;;;;;;;15.55;8.18;;;21.00;99.90;;;;;;5000771;28;20026;-75
2023/09/07 08:07:17;;;;;;;10.77;8.30;;;21.10;99.90;;;;;;5001548;28;20076;-74
2023/09/07 08:09:42;;;;;;;12.07;7.95;;;21.20;99.90;;;;;;5000929;28;20022;-73
2023/09/07 08:12:08;;;;;;;11.68;8.40;;;21.30;99.90;;;;;;5000563;28;20031;-74
2023/09/07 08:14:34;;;;;;;10.32;7.68;;;21.50;99.90;;;;;;5001614;28;20074;-73
2023/09/07 08:17:01;;;;;;;12.02;7.60;;;21.60;99.90;;;;;;5001376;28;20010;-73
2023/09/07 08:19:27;;;;;;;11.30;7.70;;;21.70;99.90;;;;;;4999399;28;20034;-74
2023/09/07 08:21:53;;;;;;;18.25;7.78;;;21.90;99.90;;;;;;4999996;28;20026;-73
2023/09/07 08:24:19;;;;;;;10.20;7.13;;;22.10;99.90;;;;;;4997289;28;20030;-73
2023/09/07 08:26:45;;;;;;;10.75;7.43;;;22.20;99.90;;;;;;4997982;28;20041;-72
2023/09/07 08:29:11;;;;;;;9.57;7.18;;;22.30;99.90;;;;;;4996203;28;20034;-74
2023/09/07 08:31:41;;;;;;;10.52;7.40;;;22.40;99.90;;;;;;4994975;28;20033;-73
2023/09/07 08:34:11;;;;;;;9.85;6.72;;;22.50;99.90;;;;;;4999173;28;20043;-72
2023/09/07 08:36:37;;;;;;;12.35;7.53;;;22.70;99.90;;;;;;5001134;28;20660;-72
2023/09/07 08:39:09;;;;;;;9.98;7.13;;;22.80;99.90;;;;;;5000842;28;20029;-74
2023/09/07 08:41:43;;;;;;;9.07;7.03;;;22.90;99.90;;;;;;5000912;28;20492;-74
2023/09/07 08:44:10;;;;;;;9.68;6.93;;;23.00;99.90;;;;;;5001029;28;20034;-74
2023/09/07 08:46:37;;;;;;;10.63;7.10;;;23.10;99.90;;;;;;4999760;28;20027;-75
2023/09/07 08:49:03;;;;;;;11.90;6.68;;;23.20;99.90;;;;;;5000137;28;20088;-76
2023/09/07 08:51:31;;;;;;;10.23;7.10;;;23.30;99.90;;;;;;4998116;28;20604;-73
2023/09/07 08:53:57;;;;;;;8.38;6.15;;;23.40;99.90;;;;;;4999415;28;20054;-75
2023/09/07 08:56:24;;;;;;;10.75;6.68;;;23.50;99.90;;;;;;5000292;28;20030;-73
2023/09/07 08:58:50;;;;;;;10.57;7.13;;;23.70;99.90;;;;;;4999648;28;20435;-75
2023/09/07 09:01:16;;;;;;;12.35;6.38;;;23.80;99.90;;;;;;4999372;28;20030;-73
2023/09/07 09:03:42;;;;;;;8.20;6.35;;;23.90;99.90;;;;;;4998415;28;20049;-74
2023/09/07 09:06:08;;;;;;;12.48;7.07;;;24.00;99.90;;;;;;4999515;28;20023;-76
2023/09/07 09:08:57;;;;;;;9.48;6.75;;;24.10;99.90;;;;;;4999854;28;20503;-73
2023/09/07 09:11:24;;;;;;;9.93;6.70;;;24.10;99.90;;;;;;4999851;28;20027;-73
2023/09/07 09:13:52;;;;;;;13.75;6.80;;;24.30;99.90;;;;;;5001142;28;20090;-75
2023/09/07 09:16:18;;;;;;;9.90;6.68;;;24.30;99.90;;;;;;4999922;28;20117;-73
2023/09/07 09:18:57;;;;;;;11.75;6.93;;;24.40;99.90;;;;;;5001508;28;20019;-75
2023/09/07 09:21:24;;;;;;;9.98;6.78;;;24.50;99.90;;;;;;4999151;28;20034;-75
2023/09/07 09:23:52;;;;;;;7.78;6.18;;;24.60;99.90;;;;;;4996759;28;20042;-73
2023/09/07 09:26:18;;;;;;;8.43;6.57;;;24.60;99.90;;;;;;5001222;28;20027;-73
2023/09/07 09:28:47;;;;;;;7.57;6.60;;;24.70;99.90;;;;;;5001400;28;20448;-75
2023/09/07 09:31:14;;;;;;;9.10;6.90;;;24.80;99.90;;;;;;4999202;28;20034;-74
2023/09/07 09:33:41;;;;;;;9.15;6.80;;;24.90;99.90;;;;;;5001670;28;20085;-72
2023/09/07 09:36:07;;;;;;;10.73;7.10;;;25.00;99.90;;;;;;4999408;28;20101;-72
2023/09/07 09:38:34;;;;;;;12.48;6.93;;;25.00;99.90;;;;;;4999250;28;20030;-74
2023/09/07 09:41:00;;;;;;;9.77;6.15;;;25.10;99.90;;;;;;4999022;28;20081;-74
2023/09/07 09:43:26;;;;;;;8.93;6.55;;;25.20;99.90;;;;;;5000922;28;20046;-74
2023/09/07 09:45:53;;;;;;;10.73;6.65;;;25.20;99.90;;;;;;5000629;28;20034;-76
2023/09/07 09:48:22;;;;;;;11.05;6.32;;;25.30;99.90;;;;;;5000447;28;20022;-75
2023/09/07 09:50:49;;;;;;;11.20;6.85;;;25.40;99.90;;;;;;5001722;28;20118;-74
2023/09/07 09:53:20;;;;;;;9.98;6.78;;;25.50;99.90;;;;;;5000701;28;20118;-75
2023/09/07 09:55:46;;;;;;;11.43;6.85;;;25.60;99.90;;;;;;4999530;28;20112;-75
2023/09/07 09:58:13;;;;;;;8.75;6.65;;;25.70;99.90;;;;;;5000107;28;20037;-73
2023/09/07 10:00:44;;;;;;;8.23;6.05;;;25.70;99.90;;;;;;5000557;28;20030;-74
2023/09/07 10:03:30;;;;;;;7.35;6.40;;;25.80;99.90;;;;;;5000197;28;20547;-74
2023/09/07 10:05:56;;;;;;;10.95;6.63;;;25.80;99.90;;;;;;4995915;28;20039;-72
2023/09/07 10:08:24;;;;;;;14.02;7.25;;;25.90;99.90;;;;;;5000111;28;20054;-75
2023/09/07 10:10:54;;;;;;;11.60;6.68;;;26.00;99.90;;;;;;4997679;28;20042;-74
2023/09/07 10:13:35;;;;;;;9.23;6.30;;;26.10;99.90;;;;;;5001267;28;20032;-73
2023/09/07 10:16:09;;;;;;;9.68;6.30;;;26.20;99.90;;;;;;5002019;28;20125;-74
2023/09/07 10:18:38;;;;;;;;;;;26.30;99.90;;;;;;5001032;28;20050;-77
2023/09/07 10:21:05;;;;;;;16.67;6.65;;;26.30;99.90;;;;;;4999038;28;19920;-77
2023/09/07 10:23:51;;;;;;;7.85;5.63;;;26.40;99.90;;;;;;4999648;28;20061;-76
2023/09/07 10:26:18;;;;;;;8.55;6.25;;;26.50;99.90;;;;;;4999712;28;20166;-75
2023/09/07 10:28:44;;;;;;;9.73;5.60;;;26.50;99.90;;;;;;5000360;28;20042;-74
2023/09/07 10:31:24;;;;;;;8.05;5.80;;;26.60;99.90;;;;;;5004248;28;20035;-76
2023/09/07 10:33:50;;;;;;;10.45;5.68;;;26.60;99.90;;;;;;5002069;28;20085;-75
2023/09/07 10:36:27;;;;;;;8.73;6.20;;;26.70;99.90;;;;;;5002121;28;20042;-75
2023/09/07 10:38:56;;;;;;;15.35;6.40;;;26.80;99.90;;;;;;5001677;28;20038;-75
2023/09/07 10:41:22;;;;;;;6.68;5.57;;;26.90;99.90;;;;;;5002416;28;20034;-77
2023/09/07 10:43:53;;;;;;;8.82;6.22;;;26.90;99.90;;;;;;5002971;28;20077;-75
2023/09/07 10:46:20;;;;;;;7.93;5.78;;;26.90;99.90;;;;;;5005334;28;20086;-74
2023/09/07 10:48:52;;;;;;;6.20;5.43;;;27.00;99.90;;;;;;5003547;28;20109;-76
2023/09/07 10:51:20;;;;;;;9.15;5.80;;;27.00;99.90;;;;;;5004242;28;20016;-74
2023/09/07 10:53:46;;;;;;;9.77;5.78;;;27.10;99.90;;;;;;5005207;28;20440;-74
2023/09/07 10:56:12;;;;;;;7.90;5.63;;;27.20;99.90;;;;;;5005037;28;20038;-71
2023/09/07 10:58:42;;;;;;;7.45;5.50;;;27.30;99.90;;;;;;5005020;28;20030;-73
2023/09/07 11:01:08;;;;;;;9.55;5.45;;;27.40;99.90;;;;;;5005328;28;20019;-74
2023/09/07 11:03:36;;;;;;;12.75;5.63;;;27.50;99.90;;;;;;5005291;28;20045;-76
2023/09/07 11:06:03;;;;;;;5.55;4.72;;;27.60;99.90;;;;;;5004849;28;20082;-76
2023/09/07 11:08:29;;;;;;;7.97;4.80;;;27.70;99.90;;;;;;5003913;28;20022;-75
2023/09/07 11:10:55;;;;;;;8.50;5.00;;;27.70;99.90;;;;;;5002782;28;20117;-76
2023/09/07 11:13:23;;;;;;;9.38;5.07;;;27.70;99.90;;;;;;5003533;28;20033;-75
2023/09/07 11:15:49;;;;;;;6.03;5.20;;;27.70;99.90;;;;;;5004753;28;20086;-74
2023/09/07 11:18:20;;;;;;;7.28;5.10;;;27.80;99.90;;;;;;5004565;28;20022;-74
2023/09/07 11:20:46;;;;;;;4.88;4.20;;;27.80;99.90;;;;;;5003219;28;20022;-75
2023/09/07 11:23:11;;;;;;;6.55;5.10;;;27.90;99.90;;;;;;5003338;28;20185;-74
2023/09/07 11:25:38;;;;;;;6.85;4.80;;;27.90;99.90;;;;;;5003158;28;20033;-74
2023/09/07 11:28:05;;;;;;;7.07;4.90;;;28.00;99.90;;;;;;5004642;28;20026;-74
2023/09/07 11:30:32;;;;;;;11.02;4.60;;;28.10;99.90;;;;;;5004561;28;20045;-74
2023/09/07 11:33:01;;;;;;;7.80;4.60;;;28.10;99.90;;;;;;5003029;28;20030;-74
2023/09/07 11:35:27;;;;;;;5.95;4.53;;;28.20;99.90;;;;;;5004132;28;20462;-74
2023/09/07 11:37:53;;;;;;;5.45;4.70;;;28.30;99.90;;;;;;5003747;28;20046;-74
2023/09/07 11:40:19;;;;;;;9.65;4.70;;;28.40;99.90;;;;;;5002714;28;20511;-73
2023/09/07 11:42:44;;;;;;;8.18;4.53;;;28.60;99.90;;;;;;5002338;28;20045;-76
2023/09/07 11:45:10;;;;;;;7.53;4.40;;;28.70;99.90;;;;;;5004361;28;20026;-75
2023/09/07 11:47:37;;;;;;;4.78;4.15;;;28.90;99.90;;;;;;5004233;28;20049;-75
2023/09/07 11:50:03;;;;;;;5.65;4.63;;;29.00;99.90;;;;;;5003582;28;20014;-75
2023/09/07 11:52:29;;;;;;;6.03;4.55;;;29.10;99.90;;;;;;5002492;28;20019;-76
2023/09/07 11:54:54;;;;;;;5.45;4.18;;;29.20;99.90;;;;;;5004192;28;20033;-75
2023/09/07 11:57:20;;;;;;;5.47;4.07;;;29.30;99.90;;;;;;5003888;28;20050;-75
2023/09/07 11:59:46;;;;;;;7.93;4.43;;;29.50;99.90;;;;;;5003708;28;20050;-76
2023/09/07 12:02:14;;;;;;;5.63;4.18;;;29.50;99.90;;;;;;5003778;28;20037;-74
2023/09/07 12:04:40;;;;;;;4.90;3.83;;;29.50;99.90;;;;;;5002788;28;20121;-74
2023/09/07 12:07:06;;;;;;;6.18;4.22;;;29.50;99.90;;;;;;5003286;28;20063;-76
2023/09/07 12:09:32;;;;;;;6.47;3.97;;;29.60;99.90;;;;;;5003321;28;20037;-73
2023/09/07 12:11:58;;;;;;;6.55;4.00;;;29.80;99.90;;;;;;5002523;28;20058;-74
2023/09/07 12:14:23;;;;;;;4.90;4.13;;;29.90;99.90;;;;;;5002139;28;20033;-74
2023/09/07 12:16:49;;;;;;;7.85;4.30;;;30.10;99.90;;;;;;5003414;28;20022;-75
2023/09/07 12:19:14;;;;;;;6.03;4.10;;;30.20;99.90;;;;;;5003290;28;20030;-76
2023/09/07 12:21:41;;;;;;;11.85;4.22;;;30.30;99.90;;;;;;5001752;28;20053;-75
2023/09/07 12:24:08;;;;;;;4.97;4.07;;;30.40;99.90;;;;;;5002539;28;20033;-75
2023/09/07 12:26:33;;;;;;;6.50;3.78;;;30.50;99.90;;;;;;5003681;28;20018;-75
2023/09/07 12:28:59;;;;;;;5.45;3.97;;;30.50;99.90;;;;;;5003107;28;20034;-75
2023/09/07 12:31:25;;;;;;;6.28;4.38;;;30.60;99.90;;;;;;5003431;28;20115;-73
2023/09/07 12:33:51;;;;;;;4.75;4.10;;;30.70;99.90;;;;;;5002828;28;20530;-76
2023/09/07 12:36:17;;;;;;;6.32;4.00;;;30.70;99.90;;;;;;5001786;28;20034;-72
2023/09/07 12:38:43;;;;;;;5.25;4.22;;;30.80;99.90;;;;;;5001964;28;20061;-76